Flight Track Log - Related Links

Times and Time Zones

All times are in EDT time to prevent confusion due to time zone crossing. See the UPS1132 flight status page for this flight to view local times or setup timezone preferences in your user account.

Time Position Orientation Groundspeed Altitude Reporting Facility
EDT Latitude Longitude Course Direction KTS MPH feet Rate Location/Type
Thu 03:09:54 AM 39.8614 -75.2693 75° East 167 192 1,100  Level FlightAware ADS-B
Thu 03:10:02 AM 39.8587 -75.2758 242° Southwest 176 203 1,400 1,826 Climbing FlightAware ADS-B
Thu 03:10:17 AM 39.8519 -75.2911 240° Southwest 198 228 1,800 2,000 Climbing FlightAware ADS-B
Thu 03:10:26 AM 39.8477 -75.3007 240° Southwest 205 236 2,200 3,000 Climbing FlightAware ADS-B
Thu 03:10:39 AM 39.8412 -75.3152 240° Southwest 208 239 2,900 3,130 Climbing FlightAware ADS-B
Thu 03:10:49 AM 39.8364 -75.3257 239° Southwest 212 244 3,400 2,769 Climbing FlightAware ADS-B
Thu 03:10:52 AM 39.8349 -75.3293 242° Southwest 216 249 3,500 2,000 Climbing FlightAware ADS-B
Thu 03:10:55 AM 39.8336 -75.3333 247° West 220 253 3,600 1,714 Climbing FlightAware ADS-B
Thu 03:10:59 AM 39.8326 -75.3374 252° West 223 257 3,700 1,714 Climbing FlightAware ADS-B
Thu 03:11:02 AM 39.8319 -75.3422 259° West 228 262 3,800 1,714 Climbing FlightAware ADS-B
Thu 03:11:06 AM 39.8318 -75.3470 268° West 231 266 3,900 1,714 Climbing FlightAware ADS-B
Thu 03:11:09 AM 39.8320 -75.3515 273° West 234 269 4,000 2,000 Climbing FlightAware ADS-B
Thu 03:11:12 AM 39.8329 -75.3564 283° West 236 272 4,100 2,571 Climbing FlightAware ADS-B
Thu 03:11:16 AM 39.8342 -75.3610 290° West 239 275 4,300 2,571 Climbing FlightAware ADS-B
Thu 03:11:19 AM 39.8359 -75.3648 300° West 241 277 4,400 3,000 Climbing FlightAware ADS-B
Thu 03:11:22 AM 39.8385 -75.3692 308° West 242 278 4,600 3,429 Climbing FlightAware ADS-B
Thu 03:11:26 AM 39.8409 -75.3724 314° West 243 280 4,800 3,000 Climbing FlightAware ADS-B
Thu 03:11:30 AM 39.8446 -75.3763 321° Northwest 246 283 5,000 3,429 Climbing FlightAware ADS-B
Thu 03:11:33 AM 39.8475 -75.3788 327° Northwest 248 285 5,200 4,000 Climbing FlightAware ADS-B
Thu 03:11:36 AM 39.8508 -75.3811 332° Northwest 250 288 5,400 4,000 Climbing FlightAware ADS-B
Thu 03:11:39 AM 39.8544 -75.3831 337° Northwest 252 290 5,600 3,857 Climbing FlightAware ADS-B
Thu 03:11:50 AM 39.8659 -75.3884 341° North 252 290 6,300 3,429 Climbing FlightAware ADS-B
Thu 03:12:00 AM 39.8772 -75.3939 340° North 254 292 6,800 3,130 Climbing FlightAware ADS-B
Thu 03:12:13 AM 39.8914 -75.4012 338° Northwest 258 297 7,500 3,692 Climbing FlightAware ADS-B
Thu 03:12:26 AM 39.9060 -75.4083 340° North 253 291 8,400 3,923 Climbing FlightAware ADS-B
Thu 03:12:39 AM 39.9202 -75.4149 340° North 252 290 9,200 3,111 Climbing FlightAware ADS-B
Thu 03:12:53 AM 39.9360 -75.4231 338° Northwest 263 303 9,800 2,045 Climbing FlightAware ADS-B
Thu 03:13:23 AM 39.9716 -75.4422 338° Northwest 293 337 10,700 1,800 Climbing FlightAware ADS-B
Thu 03:13:53 AM 40.0120 -75.4618 340° North 322 371 11,600 1,821 Climbing FlightAware ADS-B
Thu 03:14:19 AM 40.0497 -75.4785 341° North 344 396 12,400 1,607 Climbing FlightAware ADS-B
Thu 03:14:49 AM 40.0958 -75.5000 340° North 354 407 13,100 1,400 Climbing FlightAware ADS-B
Thu 03:15:19 AM 40.1427 -75.5223 340° North 358 412 13,800 2,100 Climbing FlightAware ADS-B
Thu 03:15:49 AM 40.1897 -75.5446 340° North 362 417 15,200 2,700 Climbing FlightAware ADS-B
Thu 03:15:59 AM 40.2048 -75.5529 337° Northwest 360 414 15,600 2,400 Climbing FlightAware ADS-B
Thu 03:16:14 AM 40.2261 -75.5696 329° Northwest 357 411 16,200 2,512 Climbing FlightAware ADS-B
Thu 03:16:42 AM 40.2638 -75.6053 324° Northwest 361 415 17,400 2,483 Climbing FlightAware ADS-B
Thu 03:17:12 AM 40.3039 -75.6461 322° Northwest 364 419 18,600 2,200 Climbing FlightAware ADS-B
Thu 03:17:42 AM 40.3434 -75.6874 321° Northwest 369 425 19,600 2,066 Climbing FlightAware ADS-B
Thu 03:18:13 AM 40.3844 -75.7308 321° Northwest 375 432 20,700 2,066 Climbing FlightAware ADS-B
Thu 03:18:43 AM 40.4258 -75.7746 321° Northwest 380 437 21,700 1,900 Climbing FlightAware ADS-B
Thu 03:19:13 AM 40.4680 -75.8193 321° Northwest 386 444 22,600 1,600 Climbing FlightAware ADS-B
Thu 03:19:43 AM 40.5097 -75.8635 321° Northwest 391 450 23,300 1,377 Climbing FlightAware ADS-B
Thu 03:20:14 AM 40.5531 -75.9095 321° Northwest 393 452 24,000 764 Climbing FlightAware ADS-B
Thu 03:20:38 AM 40.5869 -75.9455 321° Northwest 390 449 24,000  Level FlightAware ADS-B
Thu 03:21:08 AM 40.6287 -75.9901 321° Northwest 392 451 24,000  Level FlightAware ADS-B
Thu 03:21:38 AM 40.6712 -76.0354 321° Northwest 396 456 24,000  Level FlightAware ADS-B
Thu 03:22:08 AM 40.7143 -76.0814 321° Northwest 397 457 24,000  Level FlightAware ADS-B
Thu 03:22:39 AM 40.7585 -76.1286 321° Northwest 397 457 24,000  Level FlightAware ADS-B
Thu 03:23:09 AM 40.8012 -76.1745 321° Northwest 397 457 24,000  Level FlightAware ADS-B
Thu 03:23:39 AM 40.8446 -76.2210 321° Northwest 397 457 24,000  Level FlightAware ADS-B
Thu 03:24:10 AM 40.8876 -76.2673 321° Northwest 397 457 24,000  Level FlightAware ADS-B
Thu 03:24:40 AM 40.9310 -76.3139 321° Northwest 397 457 24,000  Level FlightAware ADS-B
Thu 03:25:10 AM 40.9736 -76.3598 321° Northwest 396 456 24,000  Level FlightAware ADS-B
Thu 03:25:41 AM 41.0169 -76.4066 321° Northwest 395 455 24,000  Level FlightAware ADS-B
Thu 03:26:11 AM 41.0602 -76.4533 321° Northwest 394 453 24,000  Level FlightAware ADS-B
Thu 03:26:43 AM 41.1051 -76.5022 321° Northwest 393 452 24,000  Level FlightAware ADS-B
Thu 03:27:15 AM 41.1501 -76.5515 320° Northwest 391 450 24,000  Level FlightAware ADS-B
Thu 03:28:10 AM 41.2268 -76.6357 320° Northwest 392 451 24,000  Level FlightAware ADS-B
Thu 03:28:43 AM 41.2720 -76.6854 320° Northwest 392 451 24,000  Level FlightAware ADS-B
Thu 03:29:14 AM 41.3160 -76.7338 320° Northwest 391 450 24,000  Level FlightAware ADS-B
Thu 03:29:55 AM 41.3723 -76.7957 320° Northwest 388 447 24,000  Level FlightAware ADS-B
Thu 03:30:37 AM 41.4080 -76.8350 320° Northwest 388 447 24,000  Level FlightAware ADS-B
Thu 03:31:17 AM 41.4670 -76.8990 321° Northwest 386 444 24,000  Level FlightAware ADS-B
Thu 03:32:02 AM 41.5290 -76.9690 320° Northwest 384 442 24,000  Level FlightAware ADS-B
Thu 03:32:42 AM 41.5820 -77.0270 321° Northwest 382 440 24,000  Level FlightAware ADS-B
Thu 03:33:22 AM 41.6380 -77.0890 320° Northwest 380 437 24,000  Level FlightAware ADS-B
Thu 03:34:02 AM 41.6900 -77.1480 320° Northwest 379 436 24,000  Level FlightAware ADS-B
Thu 03:34:52 AM 41.7600 -77.2260 320° Northwest 379 436 24,000  Level FlightAware ADS-B
Thu 03:35:32 AM 41.8150 -77.2870 320° Northwest 378 435 24,000  Level FlightAware ADS-B
Thu 03:36:12 AM 41.8680 -77.3470 320° Northwest 378 435 24,000  Level FlightAware ADS-B
Thu 03:36:57 AM 41.9290 -77.4150 320° Northwest 379 436 24,000  Level FlightAware ADS-B
Thu 03:37:37 AM 41.9790 -77.4710 320° Northwest 379 436 24,000  Level FlightAware ADS-B
Thu 03:38:22 AM 42.0420 -77.5430 320° Northwest 378 435 24,000  Level FlightAware ADS-B
Thu 03:39:02 AM 42.0950 -77.6020 320° Northwest 379 436 24,000  Level FlightAware ADS-B
Thu 03:39:37 AM 42.1430 -77.6570 320° Northwest 379 436 24,000 -71 Level FlightAware ADS-B
Thu 03:40:27 AM 42.2110 -77.7330 320° Northwest 379 436 23,900 -1,000 Descending FlightAware ADS-B
Thu 03:41:07 AM 42.2620 -77.7920 319° Northwest 376 433 22,500 -2,550 Descending FlightAware ADS-B
Thu 03:41:47 AM 42.3170 -77.8540 320° Northwest 369 425 20,500 -2,894 Descending FlightAware ADS-B
Thu 03:42:32 AM 42.3740 -77.9200 319° Northwest 362 417 18,400 -2,753 Descending FlightAware ADS-B
Thu 03:43:12 AM 42.4220 -77.9760 319° Northwest 356 410 16,600 -2,775 Descending FlightAware ADS-B
Thu 03:43:52 AM 42.4730 -78.0350 320° Northwest 346 398 14,700 -2,682 Descending FlightAware ADS-B
Thu 03:44:37 AM 42.5270 -78.0970 320° Northwest 339 390 12,800 -2,400 Descending FlightAware ADS-B
Thu 03:45:17 AM 42.5760 -78.1530 320° Northwest 334 384 11,300 -1,129 Descending FlightAware ADS-B
Thu 03:46:02 AM 42.6250 -78.2110 319° Northwest 284 327 11,200 -353 Descending FlightAware ADS-B
Thu 03:46:42 AM 42.6630 -78.2550 320° Northwest 256 295 10,800 -1,059 Descending FlightAware ADS-B
Thu 03:47:27 AM 42.7020 -78.3010 319° Northwest 254 292 9,700 -1,457 Descending FlightAware ADS-B
Thu 03:47:52 AM 42.7230 -78.3270 318° Northwest 255 293 9,100 -1,527 Descending FlightAware ADS-B
Thu 03:48:22 AM 42.7510 -78.3590 320° Northwest 256 295 8,300 -1,500 Descending FlightAware ADS-B
Thu 03:48:52 AM 42.7780 -78.3900 320° Northwest 254 292 7,600 -1,467 Descending FlightAware ADS-B
Thu 03:49:07 AM 42.7920 -78.4060 320° Northwest 252 290 7,200 -1,714 Descending FlightAware ADS-B
Thu 03:49:27 AM 42.8100 -78.4270 319° Northwest 250 288 6,600 -1,650 Descending FlightAware ADS-B
Thu 03:49:47 AM 42.8270 -78.4470 319° Northwest 248 285 6,100 -1,800 Descending FlightAware ADS-B
Thu 03:50:17 AM 42.8530 -78.4780 319° Northwest 243 280 5,100 -1,855 Descending FlightAware ADS-B
Thu 03:50:42 AM 42.8750 -78.5030 320° Northwest 238 274 4,400 -1,745 Descending FlightAware ADS-B
Thu 03:51:12 AM 42.8990 -78.5320 318° Northwest 239 275 3,500 -1,800 Descending FlightAware ADS-B
Thu 03:51:22 AM 42.9060 -78.5400 320° Northwest 240 276 3,200 -1,650 Descending FlightAware ADS-B
Thu 03:51:52 AM 42.9340 -78.5720 320° Northwest 245 282 2,400 -800 Descending FlightAware ADS-B
Thu 03:52:22 AM 42.9560 -78.5970 320° Northwest 219 252 2,400 -109 Level FlightAware ADS-B
Thu 03:52:47 AM 42.9760 -78.6210 319° Northwest 182 209 2,300 -150 Descending FlightAware ADS-B
Thu 03:53:02 AM 42.9820 -78.6320 307° West 161 185 2,300 -200 Level FlightAware ADS-B
Thu 03:53:17 AM 42.9850 -78.6470 285° West 149 171 2,200 -600 Descending FlightAware ADS-B
Thu 03:53:22 AM 42.9860 -78.6530 283° West 143 165 2,100 -720 Descending FlightAware ADS-B
Thu 03:53:42 AM 42.9830 -78.6680 255° West 122 140 1,900 -600 Descending FlightAware ADS-B
Thu 03:54:12 AM 42.9730 -78.6870 234° Southwest 125 144 1,600 -545 Descending FlightAware ADS-B
Thu 03:54:37 AM 42.9620 -78.7010 223° Southwest 128 147 1,400 -533 Descending FlightAware ADS-B
Thu 03:54:57 AM 42.9550 -78.7110 226° Southwest 123 142 1,200 -600 Descending FlightAware ADS-B
Thu 04:02:00 AM 42.9333 -78.7167 289° West  Level FlightAware Approximate
Thu 04:03:00 AM 42.9404 -78.7306 289° West  Level Estimated

Login

Don't have an account? Register now (free) for customized features, flight alerts, and more!